Time;durP1;ratioP1;P1;durP2;ratioP2;P2;SDS_P1;SDS_P2;PMS_P1;PMS_P2;Temp;Humidity;BMP_temperature;BMP_pressure;BME280_temperature;BME280_humidity;BME280_pressure;Samples;Min_cycle;Max_cycle;Signal;HPM_P1;HPM_P2
2023/04/26 00:00:35;;;;;;;6.90;4.57;;;;;;;10.22;59.75;99059.53;4464949;32;20147;-88
2023/04/26 00:03:00;;;;;;;10.95;4.97;;;;;;;10.18;59.75;99063.13;4482105;32;20122;-88
2023/04/26 00:05:27;;;;;;;7.03;4.50;;;;;;;10.31;59.75;99061.72;4480534;31;20120;-87
2023/04/26 00:07:53;;;;;;;9.18;4.47;;;;;;;10.20;59.75;99061.31;4487204;31;20075;-87
2023/04/26 00:10:18;;;;;;;6.10;4.62;;;;;;;10.18;59.75;99073.53;4491128;31;20116;-88
2023/04/26 00:12:44;;;;;;;8.52;4.65;;;;;;;10.29;59.75;99071.34;4484820;32;20146;-88
2023/04/26 00:15:09;;;;;;;8.98;5.70;;;;;;;10.27;59.75;99074.03;4481126;31;20463;-88
2023/04/26 00:17:35;;;;;;;6.75;4.20;;;;;;;10.29;59.76;99076.56;4471481;31;20435;-89
2023/04/26 00:20:01;;;;;;;7.15;4.30;;;;;;;10.23;59.75;99075.06;4484471;32;20105;-88
2023/04/26 00:22:26;;;;;;;12.30;4.60;;;;;;;10.27;59.75;99073.19;4471543;32;20088;-87
2023/04/26 00:24:52;;;;;;;6.62;4.55;;;;;;;10.32;59.76;99076.44;4484886;32;20109;-88
2023/04/26 00:27:17;;;;;;;7.20;4.65;;;;;;;10.26;59.76;99077.53;4471496;32;20097;-88
2023/04/26 00:29:43;;;;;;;6.85;4.50;;;;;;;10.31;59.75;99083.38;4484538;32;20116;-88
2023/04/26 00:32:08;;;;;;;6.97;4.50;;;;;;;10.16;59.74;99089.16;4468635;32;20457;-88
2023/04/26 00:34:34;;;;;;;6.22;4.47;;;;;;;10.10;59.74;99090.28;4486650;31;20111;-88
2023/04/26 00:37:00;;;;;;;6.15;4.25;;;;;;;10.01;59.73;99097.62;4473948;31;20096;-88
2023/04/26 00:39:26;;;;;;;6.68;4.87;;;;;;;9.90;59.73;99098.03;4486947;31;20104;-89
2023/04/26 00:41:51;;;;;;;7.43;4.60;;;;;;;9.99;59.74;99102.03;4470801;32;20178;-88
2023/04/26 00:44:17;;;;;;;6.05;4.37;;;;;;;10.05;59.74;99099.19;4479832;31;20122;-89
2023/04/26 00:46:42;;;;;;;7.43;4.70;;;;;;;10.11;59.75;99101.53;4484157;32;20127;-88
2023/04/26 00:49:08;;;;;;;5.78;4.18;;;;;;;10.03;59.74;99109.66;4471131;32;22719;-88
2023/04/26 00:51:34;;;;;;;6.57;4.22;;;;;;;10.02;59.73;99107.09;4473867;31;20483;-88
2023/04/26 00:53:59;;;;;;;5.72;3.83;;;;;;;9.96;59.74;99103.00;4492515;31;20115;-87
2023/04/26 00:56:25;;;;;;;7.32;4.60;;;;;;;10.14;59.74;99110.03;4471668;32;20462;-89
2023/04/26 00:58:50;;;;;;;6.40;4.32;;;;;;;9.92;59.73;99103.16;4471320;32;20473;-88
2023/04/26 01:01:16;;;;;;;6.12;4.03;;;;;;;9.90;59.73;99110.19;4485132;31;20136;-89
2023/04/26 01:03:43;;;;;;;6.25;4.32;;;;;;;9.90;59.73;99103.22;4486573;31;20177;-88
2023/04/26 01:06:08;;;;;;;7.55;4.72;;;;;;;9.81;59.73;99104.44;4474029;31;20118;-88
2023/04/26 01:08:33;;;;;;;5.68;3.85;;;;;;;9.74;59.72;99104.75;4473656;31;20452;-88
2023/04/26 01:10:59;;;;;;;8.30;4.78;;;;;;;9.67;59.72;99114.50;4476114;31;20450;-87
2023/04/26 01:13:25;;;;;;;9.13;3.97;;;;;;;9.58;59.71;99112.28;4486822;31;20146;-89
2023/04/26 01:15:50;;;;;;;8.23;4.82;;;;;;;9.61;59.72;99111.31;4483045;32;20084;-88
2023/04/26 01:18:16;;;;;;;5.80;4.15;;;;;;;9.64;59.71;99113.78;4484215;32;20144;-88
2023/04/26 01:20:41;;;;;;;8.93;4.00;;;;;;;9.61;59.72;99109.56;4485457;31;20100;-89
2023/04/26 01:23:08;;;;;;;7.43;4.28;;;;;;;9.66;59.72;99109.37;4486856;31;20117;-89
2023/04/26 01:25:33;;;;;;;7.68;4.53;;;;;;;9.66;59.72;99124.97;4483119;32;20093;-88
2023/04/26 01:27:59;;;;;;;8.25;4.65;;;;;;;9.56;59.71;99118.44;4480183;31;20168;-89
2023/04/26 01:30:24;;;;;;;6.12;4.07;;;;;;;9.49;59.72;99123.03;4485570;31;20160;-89
2023/04/26 01:32:50;;;;;;;6.95;3.87;;;;;;;9.61;59.72;99126.91;4484356;32;20084;-90
2023/04/26 01:35:16;;;;;;;8.68;4.93;;;;;;;9.54;59.71;99131.50;4471225;32;20611;-90
2023/04/26 01:37:42;;;;;;;7.30;4.60;;;;;;;9.47;59.70;99130.88;4458555;32;20096;-89
2023/04/26 01:40:08;;;;;;;5.43;3.97;;;;;;;9.45;59.71;99137.84;4488019;31;20159;-90
2023/04/26 01:42:34;;;;;;;7.28;4.12;;;;;;;9.43;59.71;99141.41;4487523;31;20088;-88
2023/04/26 01:44:59;;;;;;;8.98;4.68;;;;;;;9.43;59.71;99139.66;4470933;31;20088;-88
2023/04/26 01:47:25;;;;;;;5.05;3.60;;;;;;;9.50;59.71;99146.34;4457981;32;20108;-89
2023/04/26 01:49:51;;;;;;;7.07;3.60;;;;;;;9.59;59.72;99152.09;4468162;31;20682;-88
2023/04/26 01:52:16;;;;;;;9.30;3.83;;;;;;;9.50;59.71;99145.50;4462934;32;20092;-88
2023/04/26 01:54:41;;;;;;;5.95;3.50;;;;;;;9.43;59.70;99155.25;4457754;32;20150;-87
2023/04/26 01:57:07;;;;;;;6.43;4.10;;;;;;;9.34;59.70;99154.75;4465148;31;23447;-89
2023/04/26 01:59:32;;;;;;;4.82;3.70;;;;;;;9.38;59.70;99159.78;4470631;31;20205;-88
2023/04/26 02:01:58;;;;;;;5.57;3.92;;;;;;;9.52;59.71;99157.53;4475996;32;20176;-88
2023/04/26 02:04:24;;;;;;;6.40;4.07;;;;;;;9.55;59.71;99153.97;4483764;32;20108;-88
2023/04/26 02:06:49;;;;;;;5.85;4.12;;;;;;;9.64;59.72;99156.22;4478840;31;20115;-88
2023/04/26 02:09:15;;;;;;;5.70;3.75;;;;;;;9.82;59.72;99158.12;4485893;31;20126;-87
2023/04/26 02:11:40;;;;;;;5.12;3.20;;;;;;;9.75;59.72;99156.66;4491623;31;20120;-87
2023/04/26 02:14:05;;;;;;;5.93;4.18;;;;;;;9.65;59.72;99159.66;4483322;31;20144;-86
2023/04/26 02:16:31;;;;;;;6.18;3.62;;;;;;;9.60;59.71;99161.59;4483755;32;20160;-86
2023/04/26 02:18:58;;;;;;;4.57;2.92;;;;;;;9.62;59.71;99149.38;4470702;31;20143;-87
2023/04/26 02:21:23;;;;;;;6.12;3.92;;;;;;;9.54;59.71;99152.28;4484058;32;20100;-87
2023/04/26 02:23:48;;;;;;;6.25;3.95;;;;;;;9.46;59.71;99165.56;4470050;31;22500;-87
2023/04/26 02:26:14;;;;;;;6.22;3.70;;;;;;;9.44;59.71;99164.75;4475257;32;20784;-87
2023/04/26 02:28:40;;;;;;;4.82;3.37;;;;;;;9.57;59.72;99157.34;4470529;31;20112;-87
2023/04/26 02:31:06;;;;;;;5.90;3.92;;;;;;;9.49;59.72;99168.03;4465151;31;20349;-87
2023/04/26 02:33:31;;;;;;;6.97;4.15;;;;;;;9.47;59.71;99163.81;4484099;31;20105;-86
2023/04/26 02:35:57;;;;;;;5.20;3.83;;;;;;;9.47;59.70;99167.25;4484641;31;20433;-87
2023/04/26 02:38:25;;;;;;;7.47;3.95;;;;;;;9.61;59.72;99176.28;4482849;31;20195;-86
2023/04/26 02:40:59;;;;;;;6.60;3.87;;;;;;;9.65;59.72;99176.09;4492144;31;20092;-86
2023/04/26 02:43:25;;;;;;;8.13;3.80;;;;;;;9.46;59.71;99169.87;4481214;31;20104;-88
2023/04/26 02:45:51;;;;;;;5.87;3.50;;;;;;;9.32;59.70;99169.56;4470577;32;20134;-87
2023/04/26 02:48:16;;;;;;;6.07;4.03;;;;;;;9.29;59.70;99169.66;4483482;32;20190;-87
2023/04/26 02:50:41;;;;;;;7.65;4.30;;;;;;;9.18;59.69;99170.03;4483407;32;20140;-87
2023/04/26 02:53:07;;;;;;;5.47;4.30;;;;;;;9.22;59.69;99169.00;4484140;31;21440;-87
2023/04/26 02:55:32;;;;;;;5.93;4.15;;;;;;;9.22;59.69;99175.06;4470575;32;20454;-88
2023/04/26 02:57:58;;;;;;;7.05;3.92;;;;;;;9.12;59.69;99185.84;4480449;31;20447;-86
2023/04/26 03:00:24;;;;;;;7.30;4.82;;;;;;;9.05;59.69;99184.38;4484567;31;20432;-87
2023/04/26 03:02:49;;;;;;;6.87;5.43;;;;;;;9.05;59.68;99185.22;4457152;31;20193;-88
2023/04/26 03:05:14;;;;;;;7.90;4.97;;;;;;;9.03;59.68;99187.00;4482537;32;20157;-88
2023/04/26 03:07:40;;;;;;;6.65;4.65;;;;;;;9.02;59.68;99200.03;4480296;31;20129;-87
2023/04/26 03:10:07;;;;;;;8.15;4.97;;;;;;;8.96;59.67;99195.88;4476938;31;31018;-87
2023/04/26 03:12:32;;;;;;;8.65;4.90;;;;;;;8.77;59.67;99210.41;4483251;31;20092;-88
2023/04/26 03:14:58;;;;;;;9.02;5.72;;;;;;;8.92;59.67;99215.91;4469707;32;24554;-88
2023/04/26 03:17:23;;;;;;;10.35;5.28;;;;;;;8.86;59.67;99207.50;4470044;31;20159;-88
2023/04/26 03:19:49;;;;;;;8.07;4.90;;;;;;;8.99;59.68;99207.91;4483833;32;20115;-88
2023/04/26 03:22:15;;;;;;;9.65;5.62;;;;;;;8.84;59.67;99220.53;4470720;32;20147;-88
2023/04/26 03:24:44;;;;;;;9.82;5.75;;;;;;;8.93;59.68;99225.41;4470386;32;20104;-88
2023/04/26 03:27:09;;;;;;;8.75;5.55;;;;;;;8.94;59.68;99223.66;4483586;31;20165;-87
2023/04/26 03:29:35;;;;;;;9.07;6.05;;;;;;;8.96;59.67;99223.59;4483082;32;20356;-88
2023/04/26 03:32:00;;;;;;;7.95;5.50;;;;;;;8.94;59.67;99228.84;4484231;31;20084;-88
2023/04/26 03:34:26;;;;;;;12.37;5.35;;;;;;;8.91;59.68;99234.97;4475679;32;20190;-88
2023/04/26 03:36:51;;;;;;;10.57;5.25;;;;;;;8.85;59.67;99236.94;4482616;32;20116;-87
2023/04/26 03:39:17;;;;;;;8.57;5.70;;;;;;;8.85;59.67;99234.34;4470028;32;20092;-88
2023/04/26 03:41:42;;;;;;;12.07;6.55;;;;;;;8.80;59.67;99233.66;4480436;31;20441;-88
2023/04/26 03:44:08;;;;;;;8.52;5.93;;;;;;;8.95;59.67;99240.91;4481879;32;32255;-86
2023/04/26 03:46:33;;;;;;;10.20;5.62;;;;;;;8.97;59.69;99244.31;4483407;31;21418;-86
2023/04/26 03:48:58;;;;;;;12.73;5.93;;;;;;;9.08;59.68;99236.19;4476785;31;20193;-86
2023/04/26 03:51:24;;;;;;;13.30;5.87;;;;;;;9.01;59.68;99235.53;4482519;31;20187;-87
2023/04/26 03:53:49;;;;;;;9.40;5.53;;;;;;;9.02;59.68;99237.25;4476651;31;20421;-88
2023/04/26 03:56:15;;;;;;;9.18;5.50;;;;;;;9.06;59.69;99254.41;4472550;32;20276;-88
2023/04/26 03:58:41;;;;;;;10.55;5.30;;;;;;;9.19;59.68;99244.44;4469409;32;20113;-88
2023/04/26 04:01:07;;;;;;;14.18;5.57;;;;;;;9.21;59.69;99253.00;4466437;31;20128;-88
2023/04/26 04:03:32;;;;;;;8.48;5.68;;;;;;;9.08;59.69;99247.41;4482413;32;20148;-88
2023/04/26 04:05:58;;;;;;;11.40;5.50;;;;;;;9.06;59.68;99251.81;4482204;31;20131;-87
2023/04/26 04:08:23;;;;;;;7.12;5.10;;;;;;;9.19;59.70;99255.66;4481767;32;29174;-87
2023/04/26 04:10:49;;;;;;;14.25;5.37;;;;;;;9.22;59.69;99254.72;4468924;31;20114;-86
2023/04/26 04:13:14;;;;;;;8.02;4.30;;;;;;;9.25;59.69;99258.97;4482157;32;20127;-86
2023/04/26 04:15:40;;;;;;;14.35;5.70;;;;;;;9.25;59.69;99271.97;4481512;32;28879;-86
2023/04/26 04:18:05;;;;;;;11.57;5.37;;;;;;;9.25;59.69;99275.41;4482988;32;20362;-86
2023/04/26 04:20:30;;;;;;;7.82;5.10;;;;;;;9.25;59.69;99278.00;4484349;31;20184;-87
2023/04/26 04:23:00;;;;;;;9.20;5.12;;;;;;;9.20;59.70;99287.69;4465209;31;21718;-87
2023/04/26 04:25:26;;;;;;;8.32;5.28;;;;;;;9.14;59.69;99290.47;4472326;31;20122;-87
2023/04/26 04:27:52;;;;;;;11.38;5.43;;;;;;;9.19;59.68;99291.19;4465376;31;33057;-87
2023/04/26 04:30:17;;;;;;;9.45;6.20;;;;;;;9.19;59.69;99297.22;4488487;31;20458;-86
2023/04/26 04:32:43;;;;;;;14.13;5.90;;;;;;;9.11;59.68;99304.41;4471319;32;20234;-87
2023/04/26 04:35:09;;;;;;;12.82;5.68;;;;;;;9.02;59.68;99296.09;4484356;31;20510;-87
2023/04/26 04:37:35;;;;;;;12.40;4.90;;;;;;;8.97;59.69;99304.00;4484205;32;20096;-87
2023/04/26 04:40:00;;;;;;;9.32;5.07;;;;;;;8.90;59.68;99307.72;4485143;31;20737;-86
2023/04/26 04:42:28;;;;;;;6.85;4.80;;;;;;;8.98;59.69;99308.31;4477563;31;21055;-87
2023/04/26 04:44:54;;;;;;;9.15;4.78;;;;;;;8.83;59.68;99311.41;4484154;31;20448;-87
2023/04/26 04:47:20;;;;;;;11.88;5.20;;;;;;;8.97;59.69;99316.16;4485363;31;20080;-87
2023/04/26 04:49:47;;;;;;;7.35;4.32;;;;;;;9.02;59.68;99309.09;4483501;32;20186;-87
2023/04/26 04:52:13;;;;;;;9.07;4.47;;;;;;;8.88;59.67;99322.50;4471161;32;20112;-87
2023/04/26 04:54:38;;;;;;;9.80;5.10;;;;;;;9.04;59.68;99322.84;4483448;31;20335;-88
2023/04/26 04:57:04;;;;;;;10.10;4.75;;;;;;;9.12;59.69;99333.84;4479147;31;20129;-87
2023/04/26 04:59:30;;;;;;;10.40;5.12;;;;;;;9.26;59.69;99338.59;4488623;31;20060;-88
2023/04/26 05:01:55;;;;;;;9.38;4.85;;;;;;;9.45;59.71;99334.44;4465257;31;20378;-87
2023/04/26 05:04:21;;;;;;;8.00;3.80;;;;;;;9.52;59.71;99334.19;4486664;31;20165;-87
2023/04/26 05:06:46;;;;;;;7.12;4.37;;;;;;;9.16;59.69;99336.28;4492069;31;20115;-86
2023/04/26 05:09:12;;;;;;;13.18;5.12;;;;;;;9.23;59.69;99347.31;4467613;31;20088;-86
2023/04/26 05:11:37;;;;;;;10.30;5.30;;;;;;;9.28;59.70;99340.22;4470725;32;20454;-87
2023/04/26 05:14:02;;;;;;;11.63;4.78;;;;;;;9.43;59.71;99354.44;4470001;31;28054;-87
2023/04/26 05:16:28;;;;;;;9.55;4.45;;;;;;;9.73;59.72;99355.16;4483421;32;21036;-87
2023/04/26 05:18:53;;;;;;;9.15;4.50;;;;;;;9.69;59.71;99351.78;4485123;31;20131;-86
2023/04/26 05:21:19;;;;;;;11.18;6.18;;;;;;;9.83;59.73;99346.13;4475185;32;21865;-87
2023/04/26 05:23:44;;;;;;;7.50;4.43;;;;;;;9.79;59.73;99349.75;4485106;31;20140;-85
2023/04/26 05:26:12;;;;;;;10.30;4.10;;;;;;;9.73;59.73;99355.16;4483815;32;20157;-86
2023/04/26 05:28:37;;;;;;;8.82;4.28;;;;;;;9.72;59.71;99358.66;4480925;31;20096;-87
2023/04/26 05:31:03;;;;;;;7.37;4.22;;;;;;;9.97;59.73;99358.63;4476066;32;20174;-86
2023/04/26 05:33:28;;;;;;;6.10;4.18;;;;;;;9.99;59.74;99354.22;4493534;31;30597;-87
2023/04/26 05:35:56;;;;;;;11.40;4.20;;;;;;;10.13;59.74;99354.56;4483073;32;30236;-86
2023/04/26 05:38:22;;;;;;;5.28;3.37;;;;;;;10.25;59.75;99358.50;4483472;31;20113;-88
2023/04/26 05:40:47;;;;;;;9.35;4.35;;;;;;;10.31;59.75;99358.28;4477485;31;20104;-86
2023/04/26 05:43:13;;;;;;;7.55;4.07;;;;;;;10.43;59.76;99361.28;4484640;31;20544;-87
2023/04/26 05:45:38;;;;;;;10.75;3.92;;;;;;;10.19;59.75;99363.91;4483601;32;20104;-87
2023/04/26 05:48:04;;;;;;;6.55;3.53;;;;;;;10.27;59.75;99360.16;4480173;31;33000;-86
2023/04/26 05:50:30;;;;;;;7.97;3.78;;;;;;;10.23;59.74;99344.72;4464008;31;20120;-88
2023/04/26 05:52:55;;;;;;;6.30;3.65;;;;;;;10.20;59.74;99350.84;4484597;31;20164;-87
2023/04/26 05:55:21;;;;;;;8.38;3.37;;;;;;;10.32;59.76;99362.56;4473208;32;35689;-87
2023/04/26 05:57:46;;;;;;;10.23;3.47;;;;;;;10.38;59.76;99357.97;4480498;31;20110;-87
2023/04/26 06:00:14;;;;;;;7.78;3.20;;;;;;;10.47;59.76;99355.97;4483724;32;20124;-87
2023/04/26 06:02:40;;;;;;;9.18;3.53;;;;;;;10.39;59.76;99358.84;4483632;31;20108;-87
2023/04/26 06:05:06;;;;;;;8.60;3.05;;;;;;;10.56;59.77;99356.44;4470350;32;20457;-85
2023/04/26 06:07:31;;;;;;;9.20;3.40;;;;;;;10.75;59.77;99367.84;4468515;31;20107;-85
2023/04/26 06:09:57;;;;;;;7.72;2.67;;;;;;;10.91;59.78;99364.66;4486012;31;20164;-86
2023/04/26 06:12:22;;;;;;;4.82;2.80;;;;;;;10.94;59.79;99361.94;4483215;31;20116;-87
2023/04/26 06:14:48;;;;;;;7.37;2.80;;;;;;;10.86;59.79;99362.22;4470082;32;20104;-86
2023/04/26 06:17:13;;;;;;;8.18;2.70;;;;;;;10.85;59.78;99368.34;4483383;31;20088;-87
2023/04/26 06:19:38;;;;;;;8.23;2.90;;;;;;;10.79;59.78;99370.34;4473518;32;20148;-87
2023/04/26 06:22:04;;;;;;;6.12;2.97;;;;;;;10.89;59.78;99363.88;4465957;31;20119;-87
2023/04/26 06:24:29;;;;;;;5.25;2.33;;;;;;;10.97;59.78;99367.03;4484943;31;20123;-88
2023/04/26 06:26:55;;;;;;;8.40;3.28;;;;;;;11.20;59.80;99358.28;4478138;32;23865;-88
2023/04/26 06:29:20;;;;;;;5.28;2.70;;;;;;;11.29;59.80;99363.09;4475452;31;20481;-86
2023/04/26 06:31:46;;;;;;;6.37;3.33;;;;;;;11.27;59.80;99362.31;4487570;31;20104;-87
2023/04/26 06:34:11;;;;;;;8.20;2.35;;;;;;;11.22;59.81;99365.12;4483154;32;20107;-88
2023/04/26 06:36:36;;;;;;;9.38;2.75;;;;;;;11.29;59.80;99363.94;4470885;31;20084;-88
2023/04/26 06:39:02;;;;;;;7.53;2.67;;;;;;;11.18;59.80;99366.16;4471872;32;20124;-88
2023/04/26 06:41:28;;;;;;;4.80;1.92;;;;;;;11.18;59.80;99368.78;4478194;31;20080;-86
2023/04/26 06:43:53;;;;;;;8.98;2.58;;;;;;;11.43;59.81;99372.97;4475828;31;20225;-87
2023/04/26 06:46:19;;;;;;;4.65;1.80;;;;;;;11.10;59.80;99393.41;4487479;31;20111;-88
2023/04/26 06:48:44;;;;;;;9.48;3.05;;;;;;;11.12;59.80;99371.62;4483578;31;27383;-87
2023/04/26 06:51:10;;;;;;;5.93;1.90;;;;;;;11.27;59.81;99370.13;4457001;31;20156;-89
2023/04/26 06:53:35;;;;;;;7.53;2.62;;;;;;;11.60;59.83;99378.34;4483194;32;20140;-87
2023/04/26 06:56:01;;;;;;;9.18;2.45;;;;;;;11.73;59.83;99382.09;4483267;32;20330;-87
2023/04/26 06:58:26;;;;;;;8.35;2.20;;;;;;;11.87;59.83;99374.59;4470139;32;20148;-87
2023/04/26 07:00:52;;;;;;;11.40;2.30;;;;;;;12.12;59.84;99371.75;4483238;31;20116;-87
2023/04/26 07:03:17;;;;;;;5.62;2.05;;;;;;;12.09;59.85;99368.44;4475226;31;24377;-88
2023/04/26 07:05:42;;;;;;;6.62;2.55;;;;;;;12.12;59.84;99374.38;4488013;31;20112;-88
2023/04/26 07:08:08;;;;;;;8.77;2.78;;;;;;;11.95;59.84;99380.31;4484442;31;20144;-87
2023/04/26 07:10:33;;;;;;;8.70;2.97;;;;;;;12.01;59.85;99376.56;4484132;31;20184;-89
2023/04/26 07:12:59;;;;;;;5.93;2.08;;;;;;;12.06;59.85;99358.94;4470029;32;20112;-88
2023/04/26 07:15:24;;;;;;;5.97;2.45;;;;;;;12.06;59.85;99379.81;4483060;32;20476;-88
2023/04/26 07:17:50;;;;;;;9.05;2.55;;;;;;;12.05;59.85;99390.31;4469674;32;20132;-87
2023/04/26 07:20:19;;;;;;;9.30;2.03;;;;;;;11.95;59.84;99384.69;4483004;31;20168;-88
2023/04/26 07:22:45;;;;;;;10.88;2.62;;;;;;;12.01;59.85;99394.00;4470424;32;20145;-88
2023/04/26 07:25:10;;;;;;;5.47;1.95;;;;;;;12.06;59.85;99390.25;4484340;31;20403;-88
2023/04/26 07:27:36;;;;;;;5.82;2.20;;;;;;;12.04;59.85;99402.53;4482992;32;20089;-88
2023/04/26 07:30:01;;;;;;;11.50;3.10;;;;;;;12.01;59.85;99391.37;4482775;31;20104;-87
2023/04/26 07:32:26;;;;;;;6.10;2.28;;;;;;;12.27;59.86;99394.53;4482928;32;20103;-86
2023/04/26 07:34:52;;;;;;;3.50;1.70;;;;;;;12.39;59.87;99407.97;4482460;32;20461;-88
2023/04/26 07:37:17;;;;;;;5.72;2.00;;;;;;;12.27;59.86;99407.59;4482859;32;20085;-89
2023/04/26 07:39:43;;;;;;;8.80;2.42;;;;;;;11.97;59.84;99411.53;4482867;31;20244;-87
2023/04/26 07:42:08;;;;;;;9.40;2.20;;;;;;;11.91;59.85;99401.38;4459641;32;20118;-87
2023/04/26 07:44:34;;;;;;;6.12;1.87;;;;;;;12.30;59.87;99403.97;4482702;32;20167;-87
2023/04/26 07:46:59;;;;;;;8.82;1.90;;;;;;;12.51;59.88;99396.97;4461569;31;26537;-87
2023/04/26 07:49:24;;;;;;;6.25;1.77;;;;;;;12.45;59.87;99405.91;4469383;32;20169;-88
2023/04/26 07:51:51;;;;;;;8.00;2.20;;;;;;;12.31;59.87;99430.97;4480587;32;20126;-88
2023/04/26 07:54:16;;;;;;;5.80;1.52;;;;;;;12.22;59.86;99414.78;4471539;32;20112;-88
2023/04/26 07:56:42;;;;;;;8.25;2.33;;;;;;;12.37;59.87;99410.66;4471480;32;20131;-89
2023/04/26 07:59:07;;;;;;;5.97;1.77;;;;;;;12.54;59.88;99423.81;4484151;32;20100;-88
2023/04/26 08:01:33;;;;;;;6.25;1.70;;;;;;;12.54;59.88;99418.56;4470988;32;22367;-87
2023/04/26 08:03:58;;;;;;;4.32;2.15;;;;;;;12.48;59.88;99415.38;4484455;32;20163;-88
2023/04/26 08:06:23;;;;;;;5.50;1.35;;;;;;;12.51;59.88;99418.69;4471495;32;20128;-88
2023/04/26 08:08:49;;;;;;;5.25;1.80;;;;;;;12.54;59.88;99431.63;4484261;31;20123;-88
2023/04/26 08:11:15;;;;;;;8.55;1.60;;;;;;;12.62;59.89;99428.66;4471419;32;20145;-87
2023/04/26 08:13:42;;;;;;;6.43;1.60;;;;;;;12.65;59.88;99428.53;4484448;32;20491;-87
2023/04/26 08:16:08;;;;;;;3.17;1.60;;;;;;;12.75;59.90;99434.16;4484434;31;20097;-88
2023/04/26 08:18:33;;;;;;;5.20;1.35;;;;;;;12.74;59.90;99437.69;4470488;31;20131;-88
2023/04/26 08:20:59;;;;;;;4.93;1.70;;;;;;;12.86;59.89;99424.94;4488740;31;20259;-88
2023/04/26 08:23:24;;;;;;;8.65;2.10;;;;;;;13.16;59.91;99425.25;4487152;31;20456;-86
2023/04/26 08:25:50;;;;;;;7.03;2.05;;;;;;;13.56;59.93;99427.72;4483855;31;23822;-87
2023/04/26 08:28:15;;;;;;;7.05;1.48;;;;;;;13.58;59.94;99431.13;4484433;32;20126;-87
2023/04/26 08:30:41;;;;;;;6.57;1.62;;;;;;;13.37;59.93;99453.94;4486368;31;20451;-89
2023/04/26 08:33:08;;;;;;;2.87;1.30;;;;;;;13.01;59.90;99446.00;4476474;32;20104;-88
2023/04/26 08:35:33;;;;;;;6.07;1.75;;;;;;;13.18;59.92;99446.94;4476776;31;20434;-88
2023/04/26 08:37:59;;;;;;;5.68;1.45;;;;;;;13.28;59.92;99436.09;4484308;32;20113;-87
2023/04/26 08:40:25;;;;;;;2.50;1.20;;;;;;;13.33;59.92;99440.16;4484768;31;20111;-87
2023/04/26 08:42:52;;;;;;;4.22;1.33;;;;;;;13.54;59.93;99442.66;4484337;32;20131;-89
2023/04/26 08:45:18;;;;;;;6.97;1.08;;;;;;;13.62;59.94;99446.56;4471418;32;20109;-88
2023/04/26 08:47:46;;;;;;;4.20;1.70;;;;;;;14.05;59.96;99449.66;4484483;32;20482;-89
2023/04/26 08:50:13;;;;;;;11.48;1.52;;;;;;;14.09;59.96;99456.44;4484197;32;20155;-87
2023/04/26 08:52:39;;;;;;;6.97;1.35;;;;;;;14.06;59.96;99457.44;4471429;32;20115;-88
2023/04/26 08:55:05;;;;;;;4.62;1.37;;;;;;;13.74;59.95;99455.59;4460660;31;20150;-87
2023/04/26 08:57:31;;;;;;;6.00;1.70;;;;;;;13.58;59.94;99459.87;4471090;32;20372;-88
2023/04/26 08:59:57;;;;;;;6.15;1.98;;;;;;;13.61;59.94;99460.56;4471057;32;20546;-87
2023/04/26 09:02:22;;;;;;;4.43;1.20;;;;;;;13.41;59.92;99460.69;4485527;31;20108;-87
2023/04/26 09:04:49;;;;;;;6.57;1.25;;;;;;;13.57;59.93;99463.41;4484860;31;20093;-88
2023/04/26 09:07:31;;;;;;;6.07;1.50;;;;;;;13.64;59.95;99463.03;4471516;32;20103;-87
2023/04/26 09:09:57;;;;;;;6.55;1.37;;;;;;;13.69;59.95;99454.97;4472175;32;20163;-86
2023/04/26 09:12:22;;;;;;;3.45;1.20;;;;;;;13.53;59.93;99452.28;4485866;31;20114;-88
2023/04/26 09:14:48;;;;;;;3.95;1.10;;;;;;;13.55;59.93;99462.66;4492872;31;20453;-88
2023/04/26 09:17:33;;;;;;;4.20;1.30;;;;;;;13.77;59.95;99442.38;4483819;31;20197;-87
2023/04/26 09:19:59;;;;;;;2.83;1.00;;;;;;;14.23;59.97;99453.97;4479858;31;20056;-88
2023/04/26 09:22:34;;;;;;;3.03;1.23;;;;;;;14.38;59.98;99455.78;4470521;32;20100;-87
2023/04/26 09:25:01;;;;;;;3.75;1.42;;;;;;;14.58;60.00;99449.53;4483954;32;20449;-87
2023/04/26 09:27:37;;;;;;;6.22;1.27;;;;;;;14.73;60.01;99445.25;4472922;31;20132;-87
2023/04/26 09:30:06;;;;;;;4.82;1.55;;;;;;;14.92;60.01;99434.63;4486348;31;20479;-87
2023/04/26 09:32:45;;;;;;;3.22;1.70;;;;;;;14.51;59.99;99448.16;4485512;31;20102;-90
2023/04/26 09:35:33;;;;;;;8.82;1.80;;;;;;;14.46;59.99;99455.44;4485253;31;20172;-87
2023/04/26 09:38:06;;;;;;;6.60;1.33;;;;;;;14.72;60.01;99446.19;4484043;32;20211;-88
2023/04/26 09:40:36;;;;;;;3.90;1.30;;;;;;;15.20;60.03;99439.19;4483715;32;20179;-87
2023/04/26 09:43:20;;;;;;;2.85;1.20;;;;;;;14.94;60.01;99446.72;4481588;31;20087;-88
2023/04/26 09:45:49;;;;;;;2.05;1.23;;;;;;;14.87;60.01;99439.25;4478617;31;20119;-87
2023/04/26 09:48:15;;;;;;;4.10;1.20;;;;;;;15.00;60.02;99453.38;4498613;31;20532;-87
2023/04/26 09:50:42;;;;;;;2.85;1.17;;;;;;;15.12;60.03;99451.84;4485214;31;20092;-87
2023/04/26 09:53:07;;;;;;;11.00;1.48;;;;;;;15.30;60.03;99443.81;4468250;31;20096;-87
2023/04/26 09:55:33;;;;;;;2.25;1.25;;;;;;;15.20;60.03;99457.53;4483946;32;20112;-87
2023/04/26 09:57:59;;;;;;;3.10;0.98;;;;;;;15.23;60.04;99446.88;4483175;32;22308;-87
2023/04/26 10:00:26;;;;;;;8.50;1.30;;;;;;;15.23;60.02;99475.72;4468890;31;20100;-88
2023/04/26 10:02:53;;;;;;;5.28;1.52;;;;;;;14.73;60.01;99489.78;4472473;32;20108;-87
2023/04/26 10:05:18;;;;;;;5.40;2.22;;;;;;;14.59;59.99;99464.31;4470839;32;20128;-88
2023/04/26 10:07:44;;;;;;;9.50;1.45;;;;;;;14.30;59.98;99468.44;4481298;32;20199;-87
2023/04/26 10:10:10;;;;;;;5.78;1.75;;;;;;;14.51;59.99;99453.41;4478963;31;20130;-88
2023/04/26 10:12:35;;;;;;;3.22;1.20;;;;;;;14.80;60.01;99457.09;4470537;32;20100;-87
2023/04/26 10:15:02;;;;;;;6.50;1.85;;;;;;;14.97;60.02;99451.78;4478052;32;20164;-88
2023/04/26 10:17:27;;;;;;;3.92;1.50;;;;;;;14.50;59.99;99462.19;4470488;32;20104;-87
2023/04/26 10:19:56;;;;;;;2.25;1.33;;;;;;;14.43;59.99;99460.78;4484842;31;20425;-89
2023/04/26 10:22:24;;;;;;;5.97;1.48;;;;;;;14.54;59.99;99460.25;4473739;31;20096;-88
2023/04/26 10:24:50;;;;;;;3.42;1.52;;;;;;;14.73;60.01;99459.19;4486657;31;20096;-89
2023/04/26 10:27:16;;;;;;;3.97;1.80;;;;;;;15.02;60.02;99451.53;4470597;32;20365;-89
2023/04/26 10:29:53;;;;;;;6.28;1.42;;;;;;;15.41;60.05;99458.97;4483675;31;20708;-88
2023/04/26 10:32:20;;;;;;;3.50;1.75;;;;;;;15.58;60.05;99448.38;4485178;31;20102;-88
2023/04/26 10:35:08;;;;;;;2.42;1.25;;;;;;;15.34;60.04;99460.22;4483686;32;20138;-88
2023/04/26 10:37:34;;;;;;;3.15;1.17;;;;;;;15.11;60.03;99456.25;4492386;31;20080;-87
2023/04/26 10:40:22;;;;;;;6.50;1.02;;;;;;;14.90;60.02;99465.28;4484339;31;20539;-89
2023/04/26 10:42:47;;;;;;;3.15;1.40;;;;;;;15.12;60.03;99475.44;4483489;32;20096;-87
2023/04/26 10:45:27;;;;;;;1.90;1.00;;;;;;;15.17;60.03;99476.06;4483520;32;20155;-88
2023/04/26 10:48:18;;;;;;;3.70;0.90;;;;;;;15.17;60.04;99455.09;4470834;31;20109;-88
2023/04/26 10:51:00;;;;;;;2.90;1.30;;;;;;;15.38;60.04;99466.13;4484868;31;20092;-90
2023/04/26 10:53:45;;;;;;;4.55;1.85;;;;;;;14.76;60.01;99468.66;4483610;32;20554;-89
2023/04/26 10:56:23;;;;;;;3.00;1.10;;;;;;;15.00;60.02;99477.81;4474730;32;20455;-88
2023/04/26 10:58:49;;;;;;;1.85;1.00;;;;;;;14.95;60.02;99468.53;4484734;31;20101;-89
2023/04/26 11:01:17;;;;;;;4.10;1.10;;;;;;;14.83;60.01;99475.25;4483563;31;20096;-89
2023/04/26 11:03:55;;;;;;;4.37;1.25;;;;;;;14.92;60.01;99461.69;4490670;31;20654;-89
2023/04/26 11:06:20;;;;;;;4.68;1.17;;;;;;;14.94;60.02;99458.97;4483220;32;20130;-90
2023/04/26 11:08:46;;;;;;;3.55;1.10;;;;;;;14.56;60.00;99464.47;4466506;31;20159;-89
2023/04/26 11:11:12;;;;;;;6.37;1.33;;;;;;;14.43;59.99;99464.28;4485280;31;20391;-88
2023/04/26 11:13:38;;;;;;;5.93;1.10;;;;;;;14.42;59.99;99462.53;4470054;32;20116;-88
2023/04/26 11:16:05;;;;;;;7.12;1.50;;;;;;;14.69;60.00;99462.06;4468195;32;20104;-87
2023/04/26 11:18:31;;;;;;;4.85;1.25;;;;;;;14.95;60.02;99447.56;4492704;31;20168;-89
2023/04/26 11:20:57;;;;;;;2.10;1.00;;;;;;;14.89;60.02;99450.47;4481204;32;20096;-88
2023/04/26 11:23:23;;;;;;;3.67;1.30;;;;;;;14.81;60.01;99458.78;4483101;32;20472;-89
2023/04/26 11:25:48;;;;;;;2.70;1.33;;;;;;;14.81;60.01;99450.91;4471693;31;20149;-89
2023/04/26 11:28:14;;;;;;;3.55;1.17;;;;;;;14.77;60.01;99459.87;4490411;31;20139;-88
2023/04/26 11:30:39;;;;;;;5.10;1.10;;;;;;;14.78;60.02;99466.81;4474917;32;20097;-88
2023/04/26 11:33:05;;;;;;;6.57;1.58;;;;;;;15.00;60.02;99459.47;4489347;31;20437;-88